createdAt,value
2023-05-17T00:03:58.794Z,89
2023-05-17T00:08:58.453Z,85
2023-05-17T00:13:56.881Z,83
2023-05-17T00:18:56.856Z,83
2023-05-17T00:23:56.573Z,83
2023-05-17T00:28:56.306Z,84
2023-05-17T00:33:55.324Z,84
2023-05-17T00:38:55.107Z,84
2023-05-17T00:43:54.695Z,85
2023-05-17T00:48:54.338Z,85
2023-05-17T00:53:54.646Z,85
2023-05-17T00:58:51.954Z,85
2023-05-17T01:03:52.072Z,86
2023-05-17T01:08:51.884Z,86
2023-05-17T01:13:51.236Z,87
2023-05-17T01:18:49.629Z,87
2023-05-17T01:23:49.022Z,88
2023-05-17T01:28:48.382Z,88
2023-05-17T01:33:49.305Z,88
2023-05-17T01:38:46.170Z,87
2023-05-17T01:43:46.071Z,87
2023-05-17T01:48:45.336Z,87
2023-05-17T01:53:44.644Z,87
2023-05-17T01:58:43.194Z,88
2023-05-17T02:05:04.274Z,88
2023-05-17T02:11:08.144Z,88
2023-05-17T02:15:02.791Z,88
2023-05-17T02:20:02.318Z,88
2023-05-17T02:25:02.245Z,89
2023-05-17T02:30:01.878Z,89
2023-05-17T02:39:59.732Z,90
2023-05-17T02:44:59.428Z,90
2023-05-17T02:54:59.468Z,90
2023-05-17T02:59:24.121Z,90
2023-05-17T03:04:24.214Z,90
2023-05-17T03:09:23.376Z,91
2023-05-17T03:14:24.105Z,91
2023-05-17T03:19:21.732Z,91
2023-05-17T03:24:21.551Z,91
2023-05-17T03:29:30.927Z,91
2023-05-17T03:34:32.344Z,89
2023-05-17T03:39:29.461Z,87
2023-05-17T03:44:28.924Z,85
2023-05-17T03:54:27.153Z,81
2023-05-17T03:59:04.884Z,81
2023-05-17T04:04:04.221Z,80
2023-05-17T04:09:04.994Z,79
2023-05-17T04:14:02.576Z,78
2023-05-17T04:19:02.543Z,77
2023-05-17T04:24:02.452Z,77
2023-05-17T04:29:02.069Z,76
2023-05-17T04:34:00.220Z,75
2023-05-17T04:38:59.984Z,74
2023-05-17T04:43:59.338Z,74
2023-05-17T04:49:00.565Z,73
2023-05-17T04:53:57.562Z,73
2023-05-17T04:58:57.436Z,72
2023-05-17T05:03:56.660Z,72
2023-05-17T05:08:56.228Z,72
2023-05-17T05:14:00.101Z,74
2023-05-17T05:19:00.259Z,74
2023-05-17T05:23:54.431Z,73
2023-05-17T05:28:53.761Z,71
2023-05-17T05:33:53.052Z,72
2023-05-17T05:38:52.512Z,73
2023-05-17T05:43:57.528Z,73
2023-05-17T05:48:51.887Z,72
2023-05-17T05:53:57.424Z,72
2023-05-17T05:58:49.487Z,71
2023-05-17T06:03:49.508Z,71
2023-05-17T06:08:48.769Z,70
2023-05-17T06:13:48.748Z,69
2023-05-17T06:18:51.220Z,68
2023-05-17T06:23:48.051Z,68
2023-05-17T06:28:47.420Z,68
2023-05-17T06:33:48.065Z,66
2023-05-17T06:38:45.492Z,65
2023-05-17T06:43:47.131Z,66
2023-05-17T06:48:44.686Z,65
2023-05-17T06:53:49.108Z,65
2023-05-17T06:58:42.583Z,64
2023-05-17T07:00:03.351Z,63
2023-05-17T07:35:01.190Z,68
2023-05-17T08:04:22.625Z,61
2023-05-17T08:09:21.969Z,59
2023-05-17T08:14:22.737Z,59
2023-05-17T08:19:30.987Z,61
2023-05-17T08:24:31.040Z,61
2023-05-17T08:29:31.066Z,62
2023-05-17T08:34:28.863Z,58
2023-05-17T08:39:29.090Z,55
2023-05-17T08:44:28.910Z,54
2023-05-17T08:49:29.177Z,55
2023-05-17T08:54:29.023Z,52
2023-05-17T08:59:08.226Z,54
2023-05-17T09:04:03.960Z,55
2023-05-17T09:09:02.201Z,58
2023-05-17T09:14:01.789Z,59
2023-05-17T09:19:02.294Z,60
2023-05-17T09:24:15.309Z,56
2023-05-17T09:28:59.838Z,56
2023-05-17T09:33:59.468Z,51
2023-05-17T09:38:59.772Z,54
2023-05-17T09:43:59.217Z,54
2023-05-17T09:48:57.965Z,57
2023-05-17T09:53:57.056Z,59
2023-05-17T09:58:57.470Z,63
2023-05-17T10:08:56.103Z,61
2023-05-17T10:13:55.284Z,60
2023-05-17T10:18:55.855Z,60
2023-05-17T10:23:54.775Z,60
2023-05-17T10:28:55.541Z,61
2023-05-17T10:33:52.825Z,59
2023-05-17T10:38:53.753Z,58
2023-05-17T10:43:52.791Z,57
2023-05-17T10:48:52.289Z,58
2023-05-17T10:53:50.683Z,56
2023-05-17T10:58:50.491Z,58
2023-05-17T11:03:50.531Z,55
2023-05-17T11:08:51.769Z,56
2023-05-17T11:13:49.121Z,56
2023-05-17T11:18:52.595Z,55
2023-05-17T11:23:48.432Z,57
2023-05-17T11:28:47.874Z,53
2023-05-17T11:33:46.400Z,51
2023-05-17T11:38:46.603Z,52
2023-05-17T11:43:45.727Z,53
2023-05-17T11:48:45.072Z,52
2023-05-17T11:53:44.138Z,52
2023-05-17T11:58:44.075Z,50
2023-05-17T12:00:05.057Z,52
2023-05-17T12:40:00.042Z,58
2023-05-17T12:45:01.087Z,57
2023-05-17T12:59:31.376Z,57
2023-05-17T13:04:36.555Z,55
2023-05-17T13:09:31.331Z,54
2023-05-17T13:14:30.919Z,52
2023-05-17T13:19:30.711Z,53
2023-05-17T13:24:31.784Z,52
2023-05-17T13:29:39.928Z,52
2023-05-17T13:34:28.674Z,53
2023-05-17T13:39:28.629Z,51
2023-05-17T13:44:28.812Z,48
2023-05-17T13:49:28.669Z,48
2023-05-17T13:54:29.834Z,45
2023-05-17T13:59:02.753Z,48
2023-05-17T14:04:02.549Z,50
2023-05-17T14:09:01.982Z,53
2023-05-17T14:14:02.600Z,50
2023-05-17T14:19:01.976Z,50
2023-05-17T14:23:59.760Z,51
2023-05-17T14:28:59.427Z,52
2023-05-17T14:33:58.428Z,52
2023-05-17T14:38:57.994Z,52
2023-05-17T14:43:57.616Z,49
2023-05-17T14:48:57.364Z,53
2023-05-17T14:53:57.909Z,55
2023-05-17T14:58:55.051Z,57
2023-05-17T15:03:54.680Z,56
2023-05-17T15:08:54.551Z,54
2023-05-17T15:13:54.231Z,54
2023-05-17T15:18:53.798Z,54
2023-05-17T15:24:46.170Z,53
2023-05-17T15:28:52.351Z,55
2023-05-17T15:33:52.352Z,54
2023-05-17T15:38:52.179Z,55
2023-05-17T15:43:51.337Z,58
2023-05-17T15:48:52.036Z,56
2023-05-17T15:53:49.123Z,56
2023-05-17T15:58:48.807Z,56
2023-05-17T16:00:10.157Z,56
2023-05-17T16:55:03.005Z,58
2023-05-17T16:59:05.008Z,58
2023-05-17T17:04:04.172Z,58
2023-05-17T17:09:03.504Z,58
2023-05-17T17:14:02.657Z,58
2023-05-17T17:19:02.461Z,59
2023-05-17T17:24:01.639Z,58
2023-05-17T17:29:02.338Z,59
2023-05-17T17:33:59.393Z,58
2023-05-17T17:38:59.372Z,58
2023-05-17T17:43:58.556Z,59
2023-05-17T17:48:57.879Z,58
2023-05-17T17:53:57.304Z,59
2023-05-17T17:58:57.173Z,60
2023-05-17T18:03:56.685Z,58
2023-05-17T18:08:57.305Z,58
2023-05-17T18:13:54.469Z,58
2023-05-17T18:18:54.657Z,58
2023-05-17T18:23:53.252Z,59
2023-05-17T18:28:53.799Z,60
2023-05-17T18:33:51.488Z,59
2023-05-17T18:38:50.987Z,60
2023-05-17T18:43:51.050Z,61
2023-05-17T18:48:50.426Z,60
2023-05-17T18:53:49.711Z,61
2023-05-17T18:58:49.190Z,61
2023-05-17T19:03:49.487Z,61
2023-05-17T19:09:03.824Z,61
2023-05-17T19:13:46.201Z,61
2023-05-17T19:18:45.808Z,62
2023-05-17T19:23:45.696Z,63
2023-05-17T19:28:44.939Z,62
2023-05-17T19:33:44.219Z,63
2023-05-17T19:38:44.072Z,62
2023-05-17T19:43:43.630Z,62
2023-05-17T19:48:42.976Z,62
2023-05-17T19:54:01.574Z,63
2023-05-17T19:58:40.866Z,62
2023-05-17T20:00:03.130Z,63
2023-05-17T20:14:59.119Z,64
2023-05-17T20:19:58.688Z,65
2023-05-17T20:24:58.822Z,64
2023-05-17T20:34:57.668Z,65
2023-05-17T20:39:57.273Z,65
2023-05-17T20:44:57.225Z,66
2023-05-17T20:49:57.102Z,67
2023-05-17T21:04:22.647Z,66
2023-05-17T21:09:22.001Z,65
2023-05-17T21:14:31.415Z,64
2023-05-17T21:19:21.574Z,65
2023-05-17T21:24:21.154Z,64
2023-05-17T21:29:31.158Z,64
2023-05-17T21:34:29.075Z,65
2023-05-17T21:39:29.673Z,65
2023-05-17T21:44:29.189Z,65
2023-05-17T21:49:29.011Z,64
2023-05-17T21:54:28.946Z,65
2023-05-17T21:59:04.957Z,65
2023-05-17T22:04:03.233Z,66
2023-05-17T22:09:01.188Z,64
2023-05-17T22:14:00.827Z,65
2023-05-17T22:19:00.775Z,65
2023-05-17T22:24:00.015Z,66
2023-05-17T22:33:58.084Z,66
2023-05-17T22:38:57.347Z,66
2023-05-17T22:43:57.024Z,67
2023-05-17T22:48:55.344Z,68
2023-05-17T22:53:55.016Z,69
2023-05-17T22:58:55.058Z,69
2023-05-17T23:03:54.469Z,68
2023-05-17T23:08:53.957Z,68
2023-05-17T23:13:53.697Z,69
2023-05-17T23:18:53.593Z,70
2023-05-17T23:23:52.688Z,70
2023-05-17T23:28:53.333Z,71
2023-05-17T23:33:50.847Z,71
2023-05-17T23:38:50.701Z,72
2023-05-17T23:43:50.669Z,71
2023-05-17T23:48:50.358Z,70
2023-05-17T23:53:48.925Z,70
2023-05-17T23:58:48.267Z,71
